Salem, Illinois
Current Conditions -  °F | °C
As of 9:15 PM on Sunday 23 Nov 2014 (Local Time) from KENL Reporting Station
Haze Haze  
Wind Chill: 52°   Ceiling: 200
Heat Index: 52°   Visibility: 1.2mi
Dew Point: 50°   Wind: 10mph
Humidity: 94%   Direction: 220°SW
Pressure: 29.26"   Gusts: NA
Location:  38.63°N, 88.94°W
Report Text: KENL 240315Z AUTO 22009KT 1 1/4SM BR OVC002 11/10 A2926 RMK AO2 T01120102
Loading
Personal Weather Stations






























Interactive Weather Map New forecast layout! Learn more

10-Day Weather Forecast

Advertisements
Track Severe Weather on mobile